Riceton, Canada
Current Conditions -  °F | °C
As of 1:00 AM on Friday 24 Oct 2014 (Local Time) from CYQR Reporting Station
Few Clouds Few Clouds  
Wind Chill: 35°   Ceiling: Unl
Heat Index: 41°   Visibility: 15mi
Dew Point: 37°   Wind: 9mph
Humidity: 87%   Direction: 220°SW
Pressure: 29.67"   Gusts: NA
Location:  50.1°N, 104.32°W
Report Text: CYQR 240700Z 22008KT 15SM FEW230 05/03 A2967 RMK CI1 SLP063
Loading
Personal Weather Stations






























Interactive Weather Map
Tropical Storm Tracking
New forecast layout! Learn more

10-Day Weather Forecast

Advertisements
Track Severe Weather on mobile